sensor_id;sensor_type;location;lat;lon;timestamp;temperature;humidity
79049;DHT22;68680;50.764;6.120;2023-07-31T00:14:52;15.40;99.90
79049;DHT22;68680;50.764;6.120;2023-07-31T00:17:18;15.30;99.90
79049;DHT22;68680;50.764;6.120;2023-07-31T00:19:44;15.30;99.90
79049;DHT22;68680;50.764;6.120;2023-07-31T00:22:11;15.30;99.90
79049;DHT22;68680;50.764;6.120;2023-07-31T00:24:37;15.30;99.90
79049;DHT22;68680;50.764;6.120;2023-07-31T00:27:04;15.30;99.90
79049;DHT22;68680;50.764;6.120;2023-07-31T00:29:30;15.30;99.90
79049;DHT22;68680;50.764;6.120;2023-07-31T00:31:56;15.30;99.90
79049;DHT22;68680;50.764;6.120;2023-07-31T00:34:22;15.40;99.90
79049;DHT22;68680;50.764;6.120;2023-07-31T00:36:47;15.40;99.90
79049;DHT22;68680;50.764;6.120;2023-07-31T00:39:15;15.40;99.90
79049;DHT22;68680;50.764;6.120;2023-07-31T00:41:40;15.40;99.90
79049;DHT22;68680;50.764;6.120;2023-07-31T00:44:06;15.40;99.90
79049;DHT22;68680;50.764;6.120;2023-07-31T00:46:32;15.40;99.90
79049;DHT22;68680;50.764;6.120;2023-07-31T00:48:59;15.50;99.90
79049;DHT22;68680;50.764;6.120;2023-07-31T00:51:25;15.50;99.90
79049;DHT22;68680;50.764;6.120;2023-07-31T00:53:51;15.50;99.90
79049;DHT22;68680;50.764;6.120;2023-07-31T00:56:19;15.50;99.90
79049;DHT22;68680;50.764;6.120;2023-07-31T00:58:45;15.50;99.90
79049;DHT22;68680;50.764;6.120;2023-07-31T01:01:11;15.60;99.90
79049;DHT22;68680;50.764;6.120;2023-07-31T01:03:37;15.60;99.90
79049;DHT22;68680;50.764;6.120;2023-07-31T01:09:00;15.60;99.90
79049;DHT22;68680;50.764;6.120;2023-07-31T01:11:34;15.60;99.90
79049;DHT22;68680;50.764;6.120;2023-07-31T01:14:08;15.60;99.90
79049;DHT22;68680;50.764;6.120;2023-07-31T01:16:34;15.60;99.90
79049;DHT22;68680;50.764;6.120;2023-07-31T01:19:00;15.60;99.90
79049;DHT22;68680;50.764;6.120;2023-07-31T01:21:41;15.60;99.90
79049;DHT22;68680;50.764;6.120;2023-07-31T01:24:23;15.60;99.90
79049;DHT22;68680;50.764;6.120;2023-07-31T01:27:00;15.60;99.90
79049;DHT22;68680;50.764;6.120;2023-07-31T01:29:36;15.70;99.90
79049;DHT22;68680;50.764;6.120;2023-07-31T01:32:08;15.70;99.90
79049;DHT22;68680;50.764;6.120;2023-07-31T01:34:36;15.70;99.90
79049;DHT22;68680;50.764;6.120;2023-07-31T01:37:03;15.70;99.90
79049;DHT22;68680;50.764;6.120;2023-07-31T01:39:29;15.70;99.90
79049;DHT22;68680;50.764;6.120;2023-07-31T01:41:56;15.70;99.90
79049;DHT22;68680;50.764;6.120;2023-07-31T01:44:22;15.70;99.90
79049;DHT22;68680;50.764;6.120;2023-07-31T01:46:48;15.70;99.90
79049;DHT22;68680;50.764;6.120;2023-07-31T01:49:14;15.70;99.90
79049;DHT22;68680;50.764;6.120;2023-07-31T01:51:39;15.70;99.90
79049;DHT22;68680;50.764;6.120;2023-07-31T01:54:05;15.70;99.90
79049;DHT22;68680;50.764;6.120;2023-07-31T01:56:31;15.70;99.90
79049;DHT22;68680;50.764;6.120;2023-07-31T01:58:58;15.70;99.90
79049;DHT22;68680;50.764;6.120;2023-07-31T02:01:24;15.70;99.90
79049;DHT22;68680;50.764;6.120;2023-07-31T02:03:50;15.70;99.90
79049;DHT22;68680;50.764;6.120;2023-07-31T02:06:15;15.70;99.90
79049;DHT22;68680;50.764;6.120;2023-07-31T02:08:41;15.70;99.90
79049;DHT22;68680;50.764;6.120;2023-07-31T02:11:07;15.70;99.90
79049;DHT22;68680;50.764;6.120;2023-07-31T02:13:33;15.70;99.90
79049;DHT22;68680;50.764;6.120;2023-07-31T02:16:00;15.80;99.90
79049;DHT22;68680;50.764;6.120;2023-07-31T02:18:26;15.80;99.90
79049;DHT22;68680;50.764;6.120;2023-07-31T02:20:52;15.70;99.90
79049;DHT22;68680;50.764;6.120;2023-07-31T02:23:18;15.80;99.90
79049;DHT22;68680;50.764;6.120;2023-07-31T02:25:44;15.80;99.90
79049;DHT22;68680;50.764;6.120;2023-07-31T02:28:11;15.80;99.90
79049;DHT22;68680;50.764;6.120;2023-07-31T02:30:37;15.80;99.90
79049;DHT22;68680;50.764;6.120;2023-07-31T02:33:04;15.80;99.90
79049;DHT22;68680;50.764;6.120;2023-07-31T02:35:30;15.80;99.90
79049;DHT22;68680;50.764;6.120;2023-07-31T02:37:56;15.80;99.90
79049;DHT22;68680;50.764;6.120;2023-07-31T02:40:22;15.80;99.90
79049;DHT22;68680;50.764;6.120;2023-07-31T02:42:48;15.90;99.90
79049;DHT22;68680;50.764;6.120;2023-07-31T02:45:14;15.90;99.90
79049;DHT22;68680;50.764;6.120;2023-07-31T02:47:39;15.80;99.90
79049;DHT22;68680;50.764;6.120;2023-07-31T02:50:07;15.80;99.90
79049;DHT22;68680;50.764;6.120;2023-07-31T02:52:33;15.90;99.90
79049;DHT22;68680;50.764;6.120;2023-07-31T02:54:59;15.90;99.90
79049;DHT22;68680;50.764;6.120;2023-07-31T02:57:25;15.90;99.90
79049;DHT22;68680;50.764;6.120;2023-07-31T02:59:51;15.80;99.90
79049;DHT22;68680;50.764;6.120;2023-07-31T03:02:16;15.90;99.90
79049;DHT22;68680;50.764;6.120;2023-07-31T03:04:42;16.00;99.90
79049;DHT22;68680;50.764;6.120;2023-07-31T03:07:09;16.00;99.90
79049;DHT22;68680;50.764;6.120;2023-07-31T03:09:35;15.90;99.90
79049;DHT22;68680;50.764;6.120;2023-07-31T03:12:01;15.90;99.90
79049;DHT22;68680;50.764;6.120;2023-07-31T03:14:26;15.90;99.90
79049;DHT22;68680;50.764;6.120;2023-07-31T03:16:53;15.90;99.90
79049;DHT22;68680;50.764;6.120;2023-07-31T03:19:19;16.00;99.90
79049;DHT22;68680;50.764;6.120;2023-07-31T03:21:45;16.00;99.90
79049;DHT22;68680;50.764;6.120;2023-07-31T03:24:12;16.00;99.90
79049;DHT22;68680;50.764;6.120;2023-07-31T03:26:38;16.00;99.90
79049;DHT22;68680;50.764;6.120;2023-07-31T03:29:04;16.00;99.90
79049;DHT22;68680;50.764;6.120;2023-07-31T03:31:29;16.00;99.90
79049;DHT22;68680;50.764;6.120;2023-07-31T03:33:55;16.00;99.90
79049;DHT22;68680;50.764;6.120;2023-07-31T03:36:21;16.00;99.90
79049;DHT22;68680;50.764;6.120;2023-07-31T03:38:47;16.00;99.90
79049;DHT22;68680;50.764;6.120;2023-07-31T03:41:14;16.00;99.90
79049;DHT22;68680;50.764;6.120;2023-07-31T03:43:40;15.90;99.90
79049;DHT22;68680;50.764;6.120;2023-07-31T03:46:05;15.90;99.90
79049;DHT22;68680;50.764;6.120;2023-07-31T03:48:31;16.00;99.90
79049;DHT22;68680;50.764;6.120;2023-07-31T03:50:57;16.00;99.90
79049;DHT22;68680;50.764;6.120;2023-07-31T03:53:23;16.00;99.90
79049;DHT22;68680;50.764;6.120;2023-07-31T03:55:49;16.00;99.90
79049;DHT22;68680;50.764;6.120;2023-07-31T03:58:16;16.00;99.90
79049;DHT22;68680;50.764;6.120;2023-07-31T04:00:41;16.00;99.90
79049;DHT22;68680;50.764;6.120;2023-07-31T04:03:07;16.00;99.90
79049;DHT22;68680;50.764;6.120;2023-07-31T04:05:33;16.00;99.90
79049;DHT22;68680;50.764;6.120;2023-07-31T04:08:04;16.00;99.90
79049;DHT22;68680;50.764;6.120;2023-07-31T04:10:29;16.00;99.90
79049;DHT22;68680;50.764;6.120;2023-07-31T04:12:55;16.00;99.90
79049;DHT22;68680;50.764;6.120;2023-07-31T04:15:22;16.00;99.90
79049;DHT22;68680;50.764;6.120;2023-07-31T04:17:48;16.00;99.90
79049;DHT22;68680;50.764;6.120;2023-07-31T04:20:14;16.00;99.90
79049;DHT22;68680;50.764;6.120;2023-07-31T04:22:40;16.00;99.90
79049;DHT22;68680;50.764;6.120;2023-07-31T04:25:06;16.00;99.90
79049;DHT22;68680;50.764;6.120;2023-07-31T04:27:32;16.00;99.90
79049;DHT22;68680;50.764;6.120;2023-07-31T04:29:58;16.00;99.90
79049;DHT22;68680;50.764;6.120;2023-07-31T04:32:25;16.00;99.90
79049;DHT22;68680;50.764;6.120;2023-07-31T04:34:51;16.10;99.90
79049;DHT22;68680;50.764;6.120;2023-07-31T04:37:16;16.00;99.90
79049;DHT22;68680;50.764;6.120;2023-07-31T04:39:42;16.00;99.90
79049;DHT22;68680;50.764;6.120;2023-07-31T04:42:08;16.00;99.90
79049;DHT22;68680;50.764;6.120;2023-07-31T04:44:34;16.10;99.90
79049;DHT22;68680;50.764;6.120;2023-07-31T04:47:00;16.10;99.90
79049;DHT22;68680;50.764;6.120;2023-07-31T04:49:27;16.00;99.90
79049;DHT22;68680;50.764;6.120;2023-07-31T04:51:53;16.10;99.90
79049;DHT22;68680;50.764;6.120;2023-07-31T04:54:19;16.10;99.90
79049;DHT22;68680;50.764;6.120;2023-07-31T04:56:44;16.10;99.90
79049;DHT22;68680;50.764;6.120;2023-07-31T04:59:10;16.10;99.90
79049;DHT22;68680;50.764;6.120;2023-07-31T05:01:36;16.20;99.90
79049;DHT22;68680;50.764;6.120;2023-07-31T05:04:02;16.20;99.90
79049;DHT22;68680;50.764;6.120;2023-07-31T05:06:29;16.20;99.90
79049;DHT22;68680;50.764;6.120;2023-07-31T05:08:55;16.20;99.90
79049;DHT22;68680;50.764;6.120;2023-07-31T05:11:21;16.20;99.90
79049;DHT22;68680;50.764;6.120;2023-07-31T05:13:46;16.20;99.90
79049;DHT22;68680;50.764;6.120;2023-07-31T05:16:12;16.30;99.90
79049;DHT22;68680;50.764;6.120;2023-07-31T05:18:38;16.30;99.90
79049;DHT22;68680;50.764;6.120;2023-07-31T05:21:04;16.30;99.90
79049;DHT22;68680;50.764;6.120;2023-07-31T05:23:31;16.30;99.90
79049;DHT22;68680;50.764;6.120;2023-07-31T05:26:03;16.30;99.90
79049;DHT22;68680;50.764;6.120;2023-07-31T05:28:29;16.30;99.90
79049;DHT22;68680;50.764;6.120;2023-07-31T05:30:59;16.30;99.90
79049;DHT22;68680;50.764;6.120;2023-07-31T05:33:25;16.10;99.90
79049;DHT22;68680;50.764;6.120;2023-07-31T05:35:50;16.00;99.90
79049;DHT22;68680;50.764;6.120;2023-07-31T05:38:16;15.90;99.90
79049;DHT22;68680;50.764;6.120;2023-07-31T05:40:44;15.80;99.90
79049;DHT22;68680;50.764;6.120;2023-07-31T05:43:09;15.80;99.90
79049;DHT22;68680;50.764;6.120;2023-07-31T05:45:35;15.80;99.90
79049;DHT22;68680;50.764;6.120;2023-07-31T05:48:01;15.80;99.90
79049;DHT22;68680;50.764;6.120;2023-07-31T05:50:28;15.70;99.90
79049;DHT22;68680;50.764;6.120;2023-07-31T05:52:53;15.70;99.90
79049;DHT22;68680;50.764;6.120;2023-07-31T05:55:19;15.70;99.90
79049;DHT22;68680;50.764;6.120;2023-07-31T05:57:46;15.70;99.90
79049;DHT22;68680;50.764;6.120;2023-07-31T06:00:13;15.80;99.90
79049;DHT22;68680;50.764;6.120;2023-07-31T06:02:39;15.80;99.90
79049;DHT22;68680;50.764;6.120;2023-07-31T06:05:06;15.80;99.90
79049;DHT22;68680;50.764;6.120;2023-07-31T06:07:32;15.80;99.90
79049;DHT22;68680;50.764;6.120;2023-07-31T06:09:58;15.90;99.90
79049;DHT22;68680;50.764;6.120;2023-07-31T06:12:23;15.90;99.90
79049;DHT22;68680;50.764;6.120;2023-07-31T06:14:51;16.00;99.90
79049;DHT22;68680;50.764;6.120;2023-07-31T06:17:16;16.00;99.90
79049;DHT22;68680;50.764;6.120;2023-07-31T06:19:42;16.10;99.90
79049;DHT22;68680;50.764;6.120;2023-07-31T06:22:08;16.20;99.90
79049;DHT22;68680;50.764;6.120;2023-07-31T06:24:34;16.20;99.90
79049;DHT22;68680;50.764;6.120;2023-07-31T06:26:59;16.20;99.90
79049;DHT22;68680;50.764;6.120;2023-07-31T06:29:25;16.30;99.90
79049;DHT22;68680;50.764;6.120;2023-07-31T06:31:52;16.40;99.90
79049;DHT22;68680;50.764;6.120;2023-07-31T06:34:18;16.30;99.90
79049;DHT22;68680;50.764;6.120;2023-07-31T06:36:44;16.30;99.90
79049;DHT22;68680;50.764;6.120;2023-07-31T06:39:10;16.40;99.90
79049;DHT22;68680;50.764;6.120;2023-07-31T06:41:35;16.30;99.90
79049;DHT22;68680;50.764;6.120;2023-07-31T06:44:01;16.30;99.90
79049;DHT22;68680;50.764;6.120;2023-07-31T06:46:27;16.30;99.90
79049;DHT22;68680;50.764;6.120;2023-07-31T06:48:54;16.30;99.90
79049;DHT22;68680;50.764;6.120;2023-07-31T06:51:20;16.40;99.90
79049;DHT22;68680;50.764;6.120;2023-07-31T06:53:46;16.40;99.90
79049;DHT22;68680;50.764;6.120;2023-07-31T06:56:12;16.30;99.90
79049;DHT22;68680;50.764;6.120;2023-07-31T06:58:37;16.30;99.90
79049;DHT22;68680;50.764;6.120;2023-07-31T07:01:03;16.30;99.90
79049;DHT22;68680;50.764;6.120;2023-07-31T07:03:29;16.20;99.90
79049;DHT22;68680;50.764;6.120;2023-07-31T07:05:56;16.20;99.90
79049;DHT22;68680;50.764;6.120;2023-07-31T07:08:22;16.10;99.90
79049;DHT22;68680;50.764;6.120;2023-07-31T07:10:48;16.00;99.90
79049;DHT22;68680;50.764;6.120;2023-07-31T07:13:13;16.00;99.90
79049;DHT22;68680;50.764;6.120;2023-07-31T07:15:39;15.90;99.90
79049;DHT22;68680;50.764;6.120;2023-07-31T07:18:05;15.90;99.90
79049;DHT22;68680;50.764;6.120;2023-07-31T07:20:31;15.80;99.90
79049;DHT22;68680;50.764;6.120;2023-07-31T07:22:58;15.80;99.90
79049;DHT22;68680;50.764;6.120;2023-07-31T07:25:24;15.80;99.90
79049;DHT22;68680;50.764;6.120;2023-07-31T07:27:50;15.80;99.90
79049;DHT22;68680;50.764;6.120;2023-07-31T07:30:15;15.80;99.90
79049;DHT22;68680;50.764;6.120;2023-07-31T07:32:41;15.90;99.90
79049;DHT22;68680;50.764;6.120;2023-07-31T07:35:07;15.80;99.90
79049;DHT22;68680;50.764;6.120;2023-07-31T07:37:33;15.90;99.90
79049;DHT22;68680;50.764;6.120;2023-07-31T07:40:00;15.80;99.90
79049;DHT22;68680;50.764;6.120;2023-07-31T07:42:26;15.80;99.90
79049;DHT22;68680;50.764;6.120;2023-07-31T07:44:52;15.80;99.90
79049;DHT22;68680;50.764;6.120;2023-07-31T07:47:18;15.80;99.90
79049;DHT22;68680;50.764;6.120;2023-07-31T07:49:43;15.90;99.90
79049;DHT22;68680;50.764;6.120;2023-07-31T07:52:09;15.90;99.90
79049;DHT22;68680;50.764;6.120;2023-07-31T07:54:35;16.00;99.90
79049;DHT22;68680;50.764;6.120;2023-07-31T07:57:03;16.00;99.90
79049;DHT22;68680;50.764;6.120;2023-07-31T07:59:29;16.00;99.90
79049;DHT22;68680;50.764;6.120;2023-07-31T08:01:55;16.10;99.90
79049;DHT22;68680;50.764;6.120;2023-07-31T08:04:20;16.10;99.90
79049;DHT22;68680;50.764;6.120;2023-07-31T08:06:46;16.10;99.90
79049;DHT22;68680;50.764;6.120;2023-07-31T08:09:12;16.10;99.90
79049;DHT22;68680;50.764;6.120;2023-07-31T08:11:38;16.10;99.90
79049;DHT22;68680;50.764;6.120;2023-07-31T08:14:05;16.10;99.90
79049;DHT22;68680;50.764;6.120;2023-07-31T08:16:31;16.20;99.90
79049;DHT22;68680;50.764;6.120;2023-07-31T08:18:56;16.20;99.90
79049;DHT22;68680;50.764;6.120;2023-07-31T08:21:22;16.20;99.90
79049;DHT22;68680;50.764;6.120;2023-07-31T08:23:48;16.20;99.90
79049;DHT22;68680;50.764;6.120;2023-07-31T08:26:15;16.20;99.90
79049;DHT22;68680;50.764;6.120;2023-07-31T08:28:41;16.20;99.90
79049;DHT22;68680;50.764;6.120;2023-07-31T08:31:08;16.20;99.90
79049;DHT22;68680;50.764;6.120;2023-07-31T08:33:34;16.20;99.90
79049;DHT22;68680;50.764;6.120;2023-07-31T08:35:59;16.20;99.90
79049;DHT22;68680;50.764;6.120;2023-07-31T08:38:26;16.20;99.90
79049;DHT22;68680;50.764;6.120;2023-07-31T08:40:52;16.30;99.90
79049;DHT22;68680;50.764;6.120;2023-07-31T08:43:19;16.30;99.90
79049;DHT22;68680;50.764;6.120;2023-07-31T08:45:47;16.30;99.90
79049;DHT22;68680;50.764;6.120;2023-07-31T08:48:15;16.30;99.90
79049;DHT22;68680;50.764;6.120;2023-07-31T08:50:42;16.30;99.90
79049;DHT22;68680;50.764;6.120;2023-07-31T08:53:08;16.40;99.90
79049;DHT22;68680;50.764;6.120;2023-07-31T08:55:35;16.40;99.90
79049;DHT22;68680;50.764;6.120;2023-07-31T08:58:04;16.50;99.90
79049;DHT22;68680;50.764;6.120;2023-07-31T09:00:31;16.50;99.90
79049;DHT22;68680;50.764;6.120;2023-07-31T09:02:59;16.60;99.90
79049;DHT22;68680;50.764;6.120;2023-07-31T09:05:30;16.60;99.90
79049;DHT22;68680;50.764;6.120;2023-07-31T09:07:57;16.60;99.90
79049;DHT22;68680;50.764;6.120;2023-07-31T09:10:24;16.60;99.90
79049;DHT22;68680;50.764;6.120;2023-07-31T09:12:51;16.70;99.90
79049;DHT22;68680;50.764;6.120;2023-07-31T09:15:18;16.70;99.90
79049;DHT22;68680;50.764;6.120;2023-07-31T09:17:44;16.70;99.90
79049;DHT22;68680;50.764;6.120;2023-07-31T09:20:14;16.70;99.90
79049;DHT22;68680;50.764;6.120;2023-07-31T09:22:42;16.80;99.90
79049;DHT22;68680;50.764;6.120;2023-07-31T09:25:14;16.90;99.90
79049;DHT22;68680;50.764;6.120;2023-07-31T09:27:48;16.90;99.90
79049;DHT22;68680;50.764;6.120;2023-07-31T09:30:15;17.10;99.90
79049;DHT22;68680;50.764;6.120;2023-07-31T09:32:42;17.20;99.90
79049;DHT22;68680;50.764;6.120;2023-07-31T09:35:20;17.30;99.90
79049;DHT22;68680;50.764;6.120;2023-07-31T09:37:51;17.30;99.90
79049;DHT22;68680;50.764;6.120;2023-07-31T09:40:28;17.40;99.90
79049;DHT22;68680;50.764;6.120;2023-07-31T09:42:59;17.30;99.90
79049;DHT22;68680;50.764;6.120;2023-07-31T09:45:26;17.40;99.90
79049;DHT22;68680;50.764;6.120;2023-07-31T09:47:52;17.40;99.90
79049;DHT22;68680;50.764;6.120;2023-07-31T09:50:20;17.30;99.90
79049;DHT22;68680;50.764;6.120;2023-07-31T09:52:47;17.20;99.90
79049;DHT22;68680;50.764;6.120;2023-07-31T09:55:14;17.20;99.90
79049;DHT22;68680;50.764;6.120;2023-07-31T09:57:42;17.00;99.90
79049;DHT22;68680;50.764;6.120;2023-07-31T10:00:10;16.90;99.90
79049;DHT22;68680;50.764;6.120;2023-07-31T10:02:39;16.80;99.90
79049;DHT22;68680;50.764;6.120;2023-07-31T10:05:06;16.80;99.90
79049;DHT22;68680;50.764;6.120;2023-07-31T10:07:37;16.70;99.90
79049;DHT22;68680;50.764;6.120;2023-07-31T10:10:04;16.70;99.90
79049;DHT22;68680;50.764;6.120;2023-07-31T10:12:34;16.60;99.90
79049;DHT22;68680;50.764;6.120;2023-07-31T10:15:01;16.60;99.90
79049;DHT22;68680;50.764;6.120;2023-07-31T10:17:29;16.50;99.90
79049;DHT22;68680;50.764;6.120;2023-07-31T10:19:57;16.40;99.90
79049;DHT22;68680;50.764;6.120;2023-07-31T10:22:23;16.40;99.90
79049;DHT22;68680;50.764;6.120;2023-07-31T10:24:50;16.20;99.90
79049;DHT22;68680;50.764;6.120;2023-07-31T10:27:20;16.20;99.90
79049;DHT22;68680;50.764;6.120;2023-07-31T10:29:48;16.20;99.90
79049;DHT22;68680;50.764;6.120;2023-07-31T10:32:14;16.00;99.90
79049;DHT22;68680;50.764;6.120;2023-07-31T10:34:42;16.00;99.90
79049;DHT22;68680;50.764;6.120;2023-07-31T10:37:22;16.00;99.90
79049;DHT22;68680;50.764;6.120;2023-07-31T10:39:57;16.00;99.90
79049;DHT22;68680;50.764;6.120;2023-07-31T10:42:29;16.00;99.90
79049;DHT22;68680;50.764;6.120;2023-07-31T10:45:00;15.90;99.90
79049;DHT22;68680;50.764;6.120;2023-07-31T10:47:28;15.90;99.90
79049;DHT22;68680;50.764;6.120;2023-07-31T10:50:11;15.90;99.90
79049;DHT22;68680;50.764;6.120;2023-07-31T10:52:37;16.00;99.90
79049;DHT22;68680;50.764;6.120;2023-07-31T10:55:24;16.10;99.90
79049;DHT22;68680;50.764;6.120;2023-07-31T10:57:51;16.20;99.90
79049;DHT22;68680;50.764;6.120;2023-07-31T11:00:20;16.30;99.90
79049;DHT22;68680;50.764;6.120;2023-07-31T11:03:01;16.30;99.90
79049;DHT22;68680;50.764;6.120;2023-07-31T11:05:50;16.30;99.90
79049;DHT22;68680;50.764;6.120;2023-07-31T11:08:19;16.30;99.90
79049;DHT22;68680;50.764;6.120;2023-07-31T11:10:46;16.30;99.90
79049;DHT22;68680;50.764;6.120;2023-07-31T11:13:14;16.30;99.90
79049;DHT22;68680;50.764;6.120;2023-07-31T11:15:41;16.30;99.90
79049;DHT22;68680;50.764;6.120;2023-07-31T11:18:07;16.40;99.90
79049;DHT22;68680;50.764;6.120;2023-07-31T11:20:34;16.50;99.90
79049;DHT22;68680;50.764;6.120;2023-07-31T11:23:01;16.50;99.90
79049;DHT22;68680;50.764;6.120;2023-07-31T11:25:29;16.50;99.90
79049;DHT22;68680;50.764;6.120;2023-07-31T11:27:56;16.50;99.90
79049;DHT22;68680;50.764;6.120;2023-07-31T11:30:21;16.60;99.90
79049;DHT22;68680;50.764;6.120;2023-07-31T11:32:49;16.60;99.90
79049;DHT22;68680;50.764;6.120;2023-07-31T11:35:15;16.60;99.90
79049;DHT22;68680;50.764;6.120;2023-07-31T11:37:41;16.70;99.90
79049;DHT22;68680;50.764;6.120;2023-07-31T11:40:08;16.80;99.90
79049;DHT22;68680;50.764;6.120;2023-07-31T11:42:35;16.80;99.90
79049;DHT22;68680;50.764;6.120;2023-07-31T11:45:03;16.80;99.90
79049;DHT22;68680;50.764;6.120;2023-07-31T11:47:30;16.90;99.90
79049;DHT22;68680;50.764;6.120;2023-07-31T11:49:59;16.90;99.90
79049;DHT22;68680;50.764;6.120;2023-07-31T11:52:25;16.80;99.90
79049;DHT22;68680;50.764;6.120;2023-07-31T11:54:52;16.80;99.90
79049;DHT22;68680;50.764;6.120;2023-07-31T11:57:19;16.80;99.90
79049;DHT22;68680;50.764;6.120;2023-07-31T11:59:45;16.80;99.90
79049;DHT22;68680;50.764;6.120;2023-07-31T12:02:11;16.80;99.90
79049;DHT22;68680;50.764;6.120;2023-07-31T12:04:37;16.80;99.90
79049;DHT22;68680;50.764;6.120;2023-07-31T12:07:05;16.80;99.90
79049;DHT22;68680;50.764;6.120;2023-07-31T12:09:31;16.80;99.90
79049;DHT22;68680;50.764;6.120;2023-07-31T12:11:57;16.80;99.90
79049;DHT22;68680;50.764;6.120;2023-07-31T12:14:24;16.90;99.90
79049;DHT22;68680;50.764;6.120;2023-07-31T12:16:54;17.00;99.90
79049;DHT22;68680;50.764;6.120;2023-07-31T12:19:21;17.00;99.90
79049;DHT22;68680;50.764;6.120;2023-07-31T12:21:47;17.00;99.90
79049;DHT22;68680;50.764;6.120;2023-07-31T12:24:14;17.00;99.90
79049;DHT22;68680;50.764;6.120;2023-07-31T12:26:40;17.10;99.90
79049;DHT22;68680;50.764;6.120;2023-07-31T12:29:07;17.20;99.90
79049;DHT22;68680;50.764;6.120;2023-07-31T12:31:34;17.40;99.90
79049;DHT22;68680;50.764;6.120;2023-07-31T12:33:59;17.50;99.90
79049;DHT22;68680;50.764;6.120;2023-07-31T12:36:25;17.50;99.90
79049;DHT22;68680;50.764;6.120;2023-07-31T12:38:52;17.50;99.90
79049;DHT22;68680;50.764;6.120;2023-07-31T12:41:19;17.50;99.90
79049;DHT22;68680;50.764;6.120;2023-07-31T12:43:45;17.50;99.90
79049;DHT22;68680;50.764;6.120;2023-07-31T12:46:11;17.40;99.90
79049;DHT22;68680;50.764;6.120;2023-07-31T12:48:38;17.40;99.90
79049;DHT22;68680;50.764;6.120;2023-07-31T12:51:04;17.50;99.90
79049;DHT22;68680;50.764;6.120;2023-07-31T12:53:30;17.50;99.90
79049;DHT22;68680;50.764;6.120;2023-07-31T12:55:56;17.60;99.90
79049;DHT22;68680;50.764;6.120;2023-07-31T12:58:23;17.80;99.90
79049;DHT22;68680;50.764;6.120;2023-07-31T13:00:49;17.90;99.90
79049;DHT22;68680;50.764;6.120;2023-07-31T13:03:15;18.20;99.90
79049;DHT22;68680;50.764;6.120;2023-07-31T13:05:41;18.30;99.90
79049;DHT22;68680;50.764;6.120;2023-07-31T13:08:07;18.30;99.90
79049;DHT22;68680;50.764;6.120;2023-07-31T13:10:33;18.30;99.90
79049;DHT22;68680;50.764;6.120;2023-07-31T13:12:59;18.30;99.90
79049;DHT22;68680;50.764;6.120;2023-07-31T13:15:26;18.60;99.90
79049;DHT22;68680;50.764;6.120;2023-07-31T13:17:52;18.80;99.90
79049;DHT22;68680;50.764;6.120;2023-07-31T13:20:17;19.60;99.90
79049;DHT22;68680;50.764;6.120;2023-07-31T13:22:43;20.70;99.90
79049;DHT22;68680;50.764;6.120;2023-07-31T13:25:09;20.90;99.90
79049;DHT22;68680;50.764;6.120;2023-07-31T13:27:35;20.60;99.90
79049;DHT22;68680;50.764;6.120;2023-07-31T13:30:01;20.30;99.90
79049;DHT22;68680;50.764;6.120;2023-07-31T13:32:29;20.10;99.90
79049;DHT22;68680;50.764;6.120;2023-07-31T13:34:55;19.80;99.90
79049;DHT22;68680;50.764;6.120;2023-07-31T13:37:21;19.40;99.90
79049;DHT22;68680;50.764;6.120;2023-07-31T13:39:46;19.10;99.90
79049;DHT22;68680;50.764;6.120;2023-07-31T13:42:12;19.00;99.90
79049;DHT22;68680;50.764;6.120;2023-07-31T13:44:38;19.20;99.90
79049;DHT22;68680;50.764;6.120;2023-07-31T13:47:04;19.40;99.90
79049;DHT22;68680;50.764;6.120;2023-07-31T13:49:32;19.40;99.90
79049;DHT22;68680;50.764;6.120;2023-07-31T13:52:00;19.30;99.90
79049;DHT22;68680;50.764;6.120;2023-07-31T13:54:26;19.20;99.90
79049;DHT22;68680;50.764;6.120;2023-07-31T13:56:52;19.10;99.90
79049;DHT22;68680;50.764;6.120;2023-07-31T13:59:18;19.00;99.90
79049;DHT22;68680;50.764;6.120;2023-07-31T14:01:44;18.90;99.90
79049;DHT22;68680;50.764;6.120;2023-07-31T14:04:11;18.80;99.90
79049;DHT22;68680;50.764;6.120;2023-07-31T14:06:38;18.80;99.90
79049;DHT22;68680;50.764;6.120;2023-07-31T14:09:04;18.70;99.90
79049;DHT22;68680;50.764;6.120;2023-07-31T14:11:31;18.70;99.90
79049;DHT22;68680;50.764;6.120;2023-07-31T14:13:57;18.60;99.90
79049;DHT22;68680;50.764;6.120;2023-07-31T14:16:23;18.60;99.90
79049;DHT22;68680;50.764;6.120;2023-07-31T14:18:49;18.50;99.90
79049;DHT22;68680;50.764;6.120;2023-07-31T14:21:15;18.50;99.90
79049;DHT22;68680;50.764;6.120;2023-07-31T14:23:42;18.60;99.90
79049;DHT22;68680;50.764;6.120;2023-07-31T14:26:08;18.50;99.90
79049;DHT22;68680;50.764;6.120;2023-07-31T14:28:34;18.50;99.90
79049;DHT22;68680;50.764;6.120;2023-07-31T14:31:00;18.60;99.90
79049;DHT22;68680;50.764;6.120;2023-07-31T14:33:26;18.60;99.90
79049;DHT22;68680;50.764;6.120;2023-07-31T14:35:52;18.60;99.90
79049;DHT22;68680;50.764;6.120;2023-07-31T14:38:17;18.60;99.90
79049;DHT22;68680;50.764;6.120;2023-07-31T14:40:45;18.60;99.90
79049;DHT22;68680;50.764;6.120;2023-07-31T14:43:10;18.60;99.90
79049;DHT22;68680;50.764;6.120;2023-07-31T14:45:36;18.50;99.90
79049;DHT22;68680;50.764;6.120;2023-07-31T14:48:02;18.50;99.90
79049;DHT22;68680;50.764;6.120;2023-07-31T14:50:28;18.40;99.90
79049;DHT22;68680;50.764;6.120;2023-07-31T14:52:54;18.40;99.90
79049;DHT22;68680;50.764;6.120;2023-07-31T14:55:20;18.30;99.90
79049;DHT22;68680;50.764;6.120;2023-07-31T14:57:47;18.30;99.90
79049;DHT22;68680;50.764;6.120;2023-07-31T15:00:14;18.30;99.90
79049;DHT22;68680;50.764;6.120;2023-07-31T15:02:40;18.30;99.90
79049;DHT22;68680;50.764;6.120;2023-07-31T15:05:07;18.30;99.90
79049;DHT22;68680;50.764;6.120;2023-07-31T15:07:34;18.20;99.90
79049;DHT22;68680;50.764;6.120;2023-07-31T15:10:00;18.20;99.90
79049;DHT22;68680;50.764;6.120;2023-07-31T15:12:26;18.10;99.90
79049;DHT22;68680;50.764;6.120;2023-07-31T15:14:53;18.00;99.90
79049;DHT22;68680;50.764;6.120;2023-07-31T15:17:19;17.90;99.90
79049;DHT22;68680;50.764;6.120;2023-07-31T15:19:46;17.80;99.90
79049;DHT22;68680;50.764;6.120;2023-07-31T15:22:12;17.70;99.90
79049;DHT22;68680;50.764;6.120;2023-07-31T15:24:38;17.60;99.90
79049;DHT22;68680;50.764;6.120;2023-07-31T15:27:04;17.40;99.90
79049;DHT22;68680;50.764;6.120;2023-07-31T15:29:30;17.30;99.90
79049;DHT22;68680;50.764;6.120;2023-07-31T15:31:57;17.20;99.90
79049;DHT22;68680;50.764;6.120;2023-07-31T15:34:24;17.10;99.90
79049;DHT22;68680;50.764;6.120;2023-07-31T15:36:50;17.00;99.90
79049;DHT22;68680;50.764;6.120;2023-07-31T15:39:15;16.90;99.90
79049;DHT22;68680;50.764;6.120;2023-07-31T15:41:41;16.90;99.90
79049;DHT22;68680;50.764;6.120;2023-07-31T15:44:07;16.90;99.90